Flight Track Log - Related Links

Times and Time Zones

All times are in EDT time to prevent confusion due to time zone crossing. See the CSN3864 flight status page for this flight to view local times or setup timezone preferences in your user account.


Time Position Orientation Groundspeed Altitude Reporting Facility
EDT Latitude Longitude Course Direction KTS MPH feet Rate Location/Type
Mon 10:14:00 AM 25.0351 103.0777 116° Southeast  Level Estimated
Mon 10:15:00 AM 24.9681 103.2260 116° Southeast  Level Estimated
Mon 10:16:00 AM 24.9010 103.3742 117° Southeast  Level Estimated
Mon 10:17:00 AM 24.8337 103.5222 117° Southeast  Level Estimated
Mon 10:18:00 AM 24.7662 103.6700 117° Southeast  Level Estimated
Mon 10:19:00 AM 24.6987 103.8177 117° Southeast  Level Estimated
Mon 10:20:00 AM 24.6309 103.9652 117° Southeast  Level Estimated
Mon 10:21:00 AM 24.5631 104.1126 117° Southeast  Level Estimated
Mon 10:22:00 AM 24.4951 104.2598 117° Southeast  Level Estimated
Mon 10:23:00 AM 24.4269 104.4068 117° Southeast  Level Estimated
Mon 10:24:00 AM 24.3586 104.5537 117° Southeast  Level Estimated
Mon 10:25:00 AM 24.2902 104.7004 117° Southeast  Level Estimated
Mon 10:26:00 AM 24.2216 104.8470 117° Southeast  Level Estimated
Mon 10:27:00 AM 24.1529 104.9934 117° Southeast  Level Estimated
Mon 10:28:00 AM 24.0840 105.1397 117° Southeast  Level Estimated
Mon 10:29:00 AM 24.0150 105.2858 117° Southeast  Level Estimated
Mon 10:30:00 AM 23.9459 105.4317 117° Southeast  Level Estimated
Mon 10:31:00 AM 23.8766 105.5775 117° Southeast  Level Estimated
Mon 10:32:00 AM 23.8072 105.7231 117° Southeast  Level Estimated
Mon 10:33:00 AM 23.7377 105.8686 118° Southeast  Level Estimated
Mon 10:34:00 AM 23.6680 106.0139 118° Southeast  Level Estimated
Mon 10:35:00 AM 23.5982 106.1591 118° Southeast  Level Estimated
Mon 10:36:00 AM 23.5282 106.3041 118° Southeast  Level Estimated
Mon 10:37:00 AM 23.4581 106.4489 118° Southeast  Level Estimated
Mon 10:38:00 AM 23.3879 106.5936 118° Southeast  Level Estimated
Mon 10:39:00 AM 23.3176 106.7382 118° Southeast  Level Estimated
Mon 10:40:00 AM 23.2471 106.8826 118° Southeast  Level Estimated
Mon 10:41:00 AM 23.1765 107.0268 118° Southeast  Level Estimated
Mon 10:42:00 AM 23.1057 107.1709 118° Southeast  Level Estimated
Mon 10:43:00 AM 23.0348 107.3148 118° Southeast  Level Estimated
Mon 10:44:00 AM 22.9638 107.4586 118° Southeast  Level Estimated

Login

Don't have an account? Register now (free) for customized features, flight alerts, and more!